sensor_id;sensor_type;location;lat;lon;timestamp;pressure;altitude;pressure_sealevel;temperature;humidity
20119;BME280;10220;42.716;23.306;2023-06-10T00:00:00;94831.53;;;19.96;100.00
20119;BME280;10220;42.716;23.306;2023-06-10T00:02:26;94837.78;;;20.10;100.00
20119;BME280;10220;42.716;23.306;2023-06-10T00:04:52;94835.13;;;20.15;100.00
20119;BME280;10220;42.716;23.306;2023-06-10T00:07:18;94845.03;;;19.45;100.00
20119;BME280;10220;42.716;23.306;2023-06-10T00:09:43;94829.50;;;19.58;100.00
20119;BME280;10220;42.716;23.306;2023-06-10T00:12:09;94822.44;;;18.94;100.00
20119;BME280;10220;42.716;23.306;2023-06-10T00:14:39;94827.94;;;19.57;100.00
20119;BME280;10220;42.716;23.306;2023-06-10T00:17:05;94818.53;;;19.17;100.00
20119;BME280;10220;42.716;23.306;2023-06-10T00:19:36;94821.94;;;19.12;100.00
20119;BME280;10220;42.716;23.306;2023-06-10T00:22:01;94816.94;;;18.86;100.00
20119;BME280;10220;42.716;23.306;2023-06-10T00:24:28;94811.16;;;18.79;100.00
20119;BME280;10220;42.716;23.306;2023-06-10T00:26:54;94801.16;;;18.86;100.00
20119;BME280;10220;42.716;23.306;2023-06-10T00:29:20;94826.63;;;18.81;100.00
20119;BME280;10220;42.716;23.306;2023-06-10T00:31:45;94815.34;;;18.65;100.00
20119;BME280;10220;42.716;23.306;2023-06-10T00:34:12;94813.16;;;18.27;100.00
20119;BME280;10220;42.716;23.306;2023-06-10T00:36:37;94814.03;;;18.68;100.00
20119;BME280;10220;42.716;23.306;2023-06-10T00:39:03;94826.91;;;18.99;100.00
20119;BME280;10220;42.716;23.306;2023-06-10T00:41:29;94822.16;;;18.61;100.00
20119;BME280;10220;42.716;23.306;2023-06-10T00:43:56;94820.31;;;18.62;100.00
20119;BME280;10220;42.716;23.306;2023-06-10T00:46:23;94817.69;;;18.52;100.00
20119;BME280;10220;42.716;23.306;2023-06-10T00:48:50;94809.88;;;19.06;100.00
20119;BME280;10220;42.716;23.306;2023-06-10T00:51:19;94832.69;;;19.41;100.00
20119;BME280;10220;42.716;23.306;2023-06-10T00:53:45;94819.06;;;19.34;100.00
20119;BME280;10220;42.716;23.306;2023-06-10T00:56:10;94821.09;;;18.57;100.00
20119;BME280;10220;42.716;23.306;2023-06-10T00:58:36;94836.63;;;19.03;100.00
20119;BME280;10220;42.716;23.306;2023-06-10T01:01:02;94837.41;;;18.89;100.00
20119;BME280;10220;42.716;23.306;2023-06-10T01:03:29;94834.53;;;19.40;100.00
20119;BME280;10220;42.716;23.306;2023-06-10T01:06:01;94842.13;;;19.56;100.00
20119;BME280;10220;42.716;23.306;2023-06-10T01:08:41;94826.66;;;19.30;100.00
20119;BME280;10220;42.716;23.306;2023-06-10T01:11:16;94837.59;;;19.87;100.00
20119;BME280;10220;42.716;23.306;2023-06-10T01:13:43;94838.69;;;19.71;100.00
20119;BME280;10220;42.716;23.306;2023-06-10T01:16:09;94841.66;;;19.30;100.00
20119;BME280;10220;42.716;23.306;2023-06-10T01:18:35;94827.38;;;19.65;100.00
20119;BME280;10220;42.716;23.306;2023-06-10T01:21:00;94844.69;;;19.86;100.00
20119;BME280;10220;42.716;23.306;2023-06-10T01:23:26;94831.28;;;19.83;100.00
20119;BME280;10220;42.716;23.306;2023-06-10T01:25:58;94810.78;;;19.75;100.00
20119;BME280;10220;42.716;23.306;2023-06-10T01:31:19;94828.25;;;19.11;100.00
20119;BME280;10220;42.716;23.306;2023-06-10T01:33:52;94836.38;;;19.00;100.00
20119;BME280;10220;42.716;23.306;2023-06-10T01:36:18;94827.69;;;18.80;100.00
20119;BME280;10220;42.716;23.306;2023-06-10T01:38:45;94800.38;;;18.56;100.00
20119;BME280;10220;42.716;23.306;2023-06-10T01:41:17;94806.38;;;18.46;100.00
20119;BME280;10220;42.716;23.306;2023-06-10T01:43:44;94821.34;;;18.56;100.00
20119;BME280;10220;42.716;23.306;2023-06-10T01:46:10;94822.31;;;18.25;100.00
20119;BME280;10220;42.716;23.306;2023-06-10T01:48:37;94799.13;;;17.92;100.00
20119;BME280;10220;42.716;23.306;2023-06-10T01:51:03;94817.06;;;18.20;100.00
20119;BME280;10220;42.716;23.306;2023-06-10T01:53:28;94813.19;;;18.42;100.00
20119;BME280;10220;42.716;23.306;2023-06-10T01:55:54;94804.03;;;18.55;100.00
20119;BME280;10220;42.716;23.306;2023-06-10T01:58:19;94808.00;;;18.87;100.00
20119;BME280;10220;42.716;23.306;2023-06-10T02:00:45;94802.75;;;19.37;100.00
20119;BME280;10220;42.716;23.306;2023-06-10T02:03:10;94797.97;;;19.63;100.00
20119;BME280;10220;42.716;23.306;2023-06-10T02:05:36;94805.13;;;19.13;100.00
20119;BME280;10220;42.716;23.306;2023-06-10T02:08:01;94819.03;;;18.74;100.00
20119;BME280;10220;42.716;23.306;2023-06-10T02:10:27;94813.50;;;18.76;100.00
20119;BME280;10220;42.716;23.306;2023-06-10T02:12:52;94795.66;;;18.97;100.00
20119;BME280;10220;42.716;23.306;2023-06-10T02:15:18;94801.69;;;19.43;100.00
20119;BME280;10220;42.716;23.306;2023-06-10T02:17:43;94803.28;;;19.19;100.00
20119;BME280;10220;42.716;23.306;2023-06-10T02:20:10;94795.63;;;19.42;100.00
20119;BME280;10220;42.716;23.306;2023-06-10T02:22:36;94803.25;;;19.43;100.00
20119;BME280;10220;42.716;23.306;2023-06-10T02:25:02;94789.06;;;19.40;100.00
20119;BME280;10220;42.716;23.306;2023-06-10T02:27:29;94799.34;;;18.96;100.00
20119;BME280;10220;42.716;23.306;2023-06-10T02:29:55;94788.06;;;18.71;100.00
20119;BME280;10220;42.716;23.306;2023-06-10T02:32:21;94798.75;;;18.40;100.00
20119;BME280;10220;42.716;23.306;2023-06-10T02:34:46;94779.09;;;18.67;100.00
20119;BME280;10220;42.716;23.306;2023-06-10T02:37:12;94786.16;;;18.37;100.00
20119;BME280;10220;42.716;23.306;2023-06-10T02:39:38;94801.06;;;18.22;100.00
20119;BME280;10220;42.716;23.306;2023-06-10T02:42:03;94773.50;;;18.14;100.00
20119;BME280;10220;42.716;23.306;2023-06-10T02:44:29;94761.81;;;18.71;100.00
20119;BME280;10220;42.716;23.306;2023-06-10T02:46:54;94759.16;;;18.41;100.00
20119;BME280;10220;42.716;23.306;2023-06-10T02:49:20;94772.28;;;18.81;100.00
20119;BME280;10220;42.716;23.306;2023-06-10T02:51:45;94775.97;;;18.65;100.00
20119;BME280;10220;42.716;23.306;2023-06-10T02:54:10;94763.34;;;18.47;100.00
20119;BME280;10220;42.716;23.306;2023-06-10T02:56:36;94770.97;;;18.74;100.00
20119;BME280;10220;42.716;23.306;2023-06-10T02:59:02;94767.31;;;18.89;100.00
20119;BME280;10220;42.716;23.306;2023-06-10T03:01:27;94772.78;;;19.43;100.00
20119;BME280;10220;42.716;23.306;2023-06-10T03:03:53;94767.56;;;19.23;100.00
20119;BME280;10220;42.716;23.306;2023-06-10T03:06:18;94768.09;;;19.20;100.00
20119;BME280;10220;42.716;23.306;2023-06-10T03:08:44;94782.97;;;19.54;100.00
20119;BME280;10220;42.716;23.306;2023-06-10T03:11:10;94778.69;;;19.83;100.00
20119;BME280;10220;42.716;23.306;2023-06-10T03:13:36;94790.72;;;20.03;100.00
20119;BME280;10220;42.716;23.306;2023-06-10T03:16:01;94798.03;;;20.16;100.00
20119;BME280;10220;42.716;23.306;2023-06-10T03:18:28;94797.34;;;20.01;100.00
20119;BME280;10220;42.716;23.306;2023-06-10T03:20:56;94800.72;;;20.11;100.00
20119;BME280;10220;42.716;23.306;2023-06-10T03:23:23;94793.03;;;20.20;100.00
20119;BME280;10220;42.716;23.306;2023-06-10T03:25:48;94809.88;;;20.19;100.00
20119;BME280;10220;42.716;23.306;2023-06-10T03:28:14;94811.75;;;20.08;100.00
20119;BME280;10220;42.716;23.306;2023-06-10T03:30:39;94802.13;;;19.79;100.00
20119;BME280;10220;42.716;23.306;2023-06-10T03:33:05;94826.28;;;19.91;100.00
20119;BME280;10220;42.716;23.306;2023-06-10T03:35:30;94821.84;;;19.82;100.00
20119;BME280;10220;42.716;23.306;2023-06-10T03:37:57;94805.59;;;19.65;100.00
20119;BME280;10220;42.716;23.306;2023-06-10T03:40:23;94814.50;;;19.64;100.00
20119;BME280;10220;42.716;23.306;2023-06-10T03:42:48;94805.31;;;19.56;100.00
20119;BME280;10220;42.716;23.306;2023-06-10T03:45:14;94812.16;;;19.57;100.00
20119;BME280;10220;42.716;23.306;2023-06-10T03:47:39;94817.19;;;19.29;100.00
20119;BME280;10220;42.716;23.306;2023-06-10T03:50:07;94825.34;;;19.03;100.00
20119;BME280;10220;42.716;23.306;2023-06-10T03:52:33;94802.22;;;18.75;100.00
20119;BME280;10220;42.716;23.306;2023-06-10T03:54:59;94810.06;;;18.50;100.00
20119;BME280;10220;42.716;23.306;2023-06-10T03:57:24;94811.03;;;18.20;100.00
20119;BME280;10220;42.716;23.306;2023-06-10T03:59:50;94788.66;;;18.07;100.00
20119;BME280;10220;42.716;23.306;2023-06-10T04:02:19;94793.41;;;18.05;100.00
20119;BME280;10220;42.716;23.306;2023-06-10T04:04:44;94806.06;;;18.28;100.00
20119;BME280;10220;42.716;23.306;2023-06-10T04:07:10;94797.63;;;18.16;100.00
20119;BME280;10220;42.716;23.306;2023-06-10T04:09:36;94797.28;;;17.98;100.00
20119;BME280;10220;42.716;23.306;2023-06-10T04:12:02;94795.31;;;18.25;100.00
20119;BME280;10220;42.716;23.306;2023-06-10T04:14:27;94804.50;;;18.27;100.00
20119;BME280;10220;42.716;23.306;2023-06-10T04:16:53;94826.28;;;18.42;100.00
20119;BME280;10220;42.716;23.306;2023-06-10T04:19:18;94817.38;;;18.43;100.00
20119;BME280;10220;42.716;23.306;2023-06-10T04:21:45;94829.31;;;18.10;100.00
20119;BME280;10220;42.716;23.306;2023-06-10T04:24:10;94809.53;;;17.82;100.00
20119;BME280;10220;42.716;23.306;2023-06-10T04:26:36;94802.94;;;18.26;100.00
20119;BME280;10220;42.716;23.306;2023-06-10T04:29:02;94805.81;;;18.34;100.00
20119;BME280;10220;42.716;23.306;2023-06-10T04:31:27;94803.19;;;18.25;100.00
20119;BME280;10220;42.716;23.306;2023-06-10T04:33:53;94814.78;;;18.48;100.00
20119;BME280;10220;42.716;23.306;2023-06-10T04:36:19;94805.88;;;18.49;100.00
20119;BME280;10220;42.716;23.306;2023-06-10T04:38:44;94800.84;;;18.38;100.00
20119;BME280;10220;42.716;23.306;2023-06-10T04:41:09;94804.81;;;18.55;100.00
20119;BME280;10220;42.716;23.306;2023-06-10T04:43:35;94814.28;;;18.76;100.00
20119;BME280;10220;42.716;23.306;2023-06-10T04:46:00;94813.75;;;18.54;100.00
20119;BME280;10220;42.716;23.306;2023-06-10T04:48:26;94820.06;;;18.68;100.00
20119;BME280;10220;42.716;23.306;2023-06-10T04:50:52;94824.53;;;18.92;100.00
20119;BME280;10220;42.716;23.306;2023-06-10T04:53:17;94819.84;;;19.14;100.00
20119;BME280;10220;42.716;23.306;2023-06-10T04:55:43;94822.47;;;19.14;100.00
20119;BME280;10220;42.716;23.306;2023-06-10T04:58:09;94807.97;;;18.72;100.00
20119;BME280;10220;42.716;23.306;2023-06-10T05:00:34;94799.03;;;18.63;100.00
20119;BME280;10220;42.716;23.306;2023-06-10T05:03:00;94804.84;;;18.70;100.00
20119;BME280;10220;42.716;23.306;2023-06-10T05:05:25;94801.72;;;18.88;100.00
20119;BME280;10220;42.716;23.306;2023-06-10T05:07:51;94809.31;;;18.89;100.00
20119;BME280;10220;42.716;23.306;2023-06-10T05:10:16;94804.59;;;19.11;100.00
20119;BME280;10220;42.716;23.306;2023-06-10T05:12:42;94808.28;;;19.05;100.00
20119;BME280;10220;42.716;23.306;2023-06-10T05:15:08;94821.13;;;19.32;100.00
20119;BME280;10220;42.716;23.306;2023-06-10T05:17:33;94799.84;;;19.03;100.00
20119;BME280;10220;42.716;23.306;2023-06-10T05:20:01;94807.47;;;18.90;100.00
20119;BME280;10220;42.716;23.306;2023-06-10T05:22:26;94818.28;;;19.18;100.00
20119;BME280;10220;42.716;23.306;2023-06-10T05:24:53;94799.59;;;19.00;100.00
20119;BME280;10220;42.716;23.306;2023-06-10T05:27:18;94814.06;;;19.12;100.00
20119;BME280;10220;42.716;23.306;2023-06-10T05:29:44;94821.41;;;19.25;100.00
20119;BME280;10220;42.716;23.306;2023-06-10T05:32:10;94828.22;;;19.51;100.00
20119;BME280;10220;42.716;23.306;2023-06-10T05:34:36;94808.50;;;19.58;100.00
20119;BME280;10220;42.716;23.306;2023-06-10T05:37:01;94801.16;;;19.50;100.00
20119;BME280;10220;42.716;23.306;2023-06-10T05:39:27;94824.25;;;19.58;100.00
20119;BME280;10220;42.716;23.306;2023-06-10T05:41:52;94822.19;;;19.50;100.00
20119;BME280;10220;42.716;23.306;2023-06-10T05:44:18;94813.94;;;19.82;100.00
20119;BME280;10220;42.716;23.306;2023-06-10T05:46:43;94829.22;;;19.70;100.00
20119;BME280;10220;42.716;23.306;2023-06-10T05:49:08;94821.63;;;19.63;100.00
20119;BME280;10220;42.716;23.306;2023-06-10T05:51:34;94816.03;;;19.85;100.00
20119;BME280;10220;42.716;23.306;2023-06-10T05:53:59;94829.19;;;19.95;100.00
20119;BME280;10220;42.716;23.306;2023-06-10T05:56:25;94811.34;;;19.62;100.00
20119;BME280;10220;42.716;23.306;2023-06-10T05:58:51;94815.22;;;19.94;100.00
20119;BME280;10220;42.716;23.306;2023-06-10T06:01:16;94827.09;;;19.77;100.00
20119;BME280;10220;42.716;23.306;2023-06-10T06:03:42;94820.28;;;19.71;100.00
20119;BME280;10220;42.716;23.306;2023-06-10T06:06:07;94818.16;;;19.78;100.00
20119;BME280;10220;42.716;23.306;2023-06-10T06:08:33;94826.94;;;19.29;100.00
20119;BME280;10220;42.716;23.306;2023-06-10T06:10:58;94825.09;;;19.39;100.00
20119;BME280;10220;42.716;23.306;2023-06-10T06:13:24;94817.97;;;19.59;100.00
20119;BME280;10220;42.716;23.306;2023-06-10T06:15:50;94825.09;;;19.39;100.00
20119;BME280;10220;42.716;23.306;2023-06-10T06:18:15;94831.09;;;19.44;100.00
20119;BME280;10220;42.716;23.306;2023-06-10T06:20:41;94834.34;;;20.24;100.00
20119;BME280;10220;42.716;23.306;2023-06-10T06:23:06;94810.59;;;20.29;100.00
20119;BME280;10220;42.716;23.306;2023-06-10T06:25:35;94820.31;;;20.39;100.00
20119;BME280;10220;42.716;23.306;2023-06-10T06:28:01;94833.63;;;20.57;100.00
20119;BME280;10220;42.716;23.306;2023-06-10T06:30:26;94836.09;;;20.87;100.00
20119;BME280;10220;42.716;23.306;2023-06-10T06:32:52;94833.94;;;20.51;100.00
20119;BME280;10220;42.716;23.306;2023-06-10T06:35:17;94841.13;;;20.83;100.00
20119;BME280;10220;42.716;23.306;2023-06-10T06:37:43;94845.19;;;20.61;100.00
20119;BME280;10220;42.716;23.306;2023-06-10T06:40:09;94832.97;;;20.32;100.00
20119;BME280;10220;42.716;23.306;2023-06-10T06:42:35;94830.91;;;20.19;100.00
20119;BME280;10220;42.716;23.306;2023-06-10T06:45:00;94819.09;;;20.16;100.00
20119;BME280;10220;42.716;23.306;2023-06-10T06:47:26;94835.59;;;20.32;100.00
20119;BME280;10220;42.716;23.306;2023-06-10T06:49:51;94822.28;;;20.08;100.00
20119;BME280;10220;42.716;23.306;2023-06-10T06:52:17;94836.19;;;20.19;100.00
20119;BME280;10220;42.716;23.306;2023-06-10T06:54:42;94812.44;;;20.34;100.00
20119;BME280;10220;42.716;23.306;2023-06-10T06:57:08;94826.06;;;20.46;100.00
20119;BME280;10220;42.716;23.306;2023-06-10T06:59:33;94805.31;;;20.34;100.00
20119;BME280;10220;42.716;23.306;2023-06-10T07:01:59;94818.84;;;20.13;100.00
20119;BME280;10220;42.716;23.306;2023-06-10T07:04:25;94803.78;;;20.28;100.00
20119;BME280;10220;42.716;23.306;2023-06-10T07:06:50;94820.38;;;20.72;100.00
20119;BME280;10220;42.716;23.306;2023-06-10T07:09:16;94805.28;;;20.44;100.00
20119;BME280;10220;42.716;23.306;2023-06-10T07:11:42;94825.88;;;20.32;100.00
20119;BME280;10220;42.716;23.306;2023-06-10T07:14:07;94818.88;;;20.56;100.00
20119;BME280;10220;42.716;23.306;2023-06-10T07:16:33;94790.63;;;20.28;100.00
20119;BME280;10220;42.716;23.306;2023-06-10T07:18:58;94818.59;;;21.34;100.00
20119;BME280;10220;42.716;23.306;2023-06-10T07:21:24;94823.03;;;21.38;100.00
20119;BME280;10220;42.716;23.306;2023-06-10T07:23:49;94821.59;;;20.89;100.00
20119;BME280;10220;42.716;23.306;2023-06-10T07:26:19;94828.78;;;21.45;100.00
20119;BME280;10220;42.716;23.306;2023-06-10T07:28:44;94809.56;;;21.68;100.00
20119;BME280;10220;42.716;23.306;2023-06-10T07:31:10;94811.88;;;21.75;100.00
20119;BME280;10220;42.716;23.306;2023-06-10T07:33:37;94829.25;;;22.27;100.00
20119;BME280;10220;42.716;23.306;2023-06-10T07:36:04;94821.31;;;22.50;100.00
20119;BME280;10220;42.716;23.306;2023-06-10T07:38:30;94826.53;;;22.74;100.00
20119;BME280;10220;42.716;23.306;2023-06-10T07:40:55;94835.28;;;23.06;100.00
20119;BME280;10220;42.716;23.306;2023-06-10T07:43:21;94817.25;;;22.76;100.00
20119;BME280;10220;42.716;23.306;2023-06-10T07:46:18;94816.44;;;22.94;100.00
20119;BME280;10220;42.716;23.306;2023-06-10T07:52:22;94836.28;;;23.28;100.00
20119;BME280;10220;42.716;23.306;2023-06-10T07:54:51;94837.72;;;23.98;100.00
20119;BME280;10220;42.716;23.306;2023-06-10T07:57:17;94847.75;;;24.54;100.00
20119;BME280;10220;42.716;23.306;2023-06-10T07:59:43;94825.53;;;23.70;100.00
20119;BME280;10220;42.716;23.306;2023-06-10T08:02:12;94835.00;;;24.43;100.00
20119;BME280;10220;42.716;23.306;2023-06-10T08:04:38;94829.19;;;24.14;97.54
20119;BME280;10220;42.716;23.306;2023-06-10T08:07:09;94832.59;;;23.74;98.91
20119;BME280;10220;42.716;23.306;2023-06-10T08:09:59;94836.94;;;24.51;100.00
20119;BME280;10220;42.716;23.306;2023-06-10T08:12:27;94807.50;;;24.25;99.82
20119;BME280;10220;42.716;23.306;2023-06-10T08:15:02;94826.25;;;24.29;100.00
20119;BME280;10220;42.716;23.306;2023-06-10T08:17:38;94829.47;;;24.66;99.85
20119;BME280;10220;42.716;23.306;2023-06-10T08:20:05;94823.91;;;24.89;100.00
20119;BME280;10220;42.716;23.306;2023-06-10T08:22:31;94809.13;;;25.10;97.24
20119;BME280;10220;42.716;23.306;2023-06-10T08:24:57;94806.94;;;24.42;99.32
20119;BME280;10220;42.716;23.306;2023-06-10T08:27:22;94801.16;;;24.40;100.00
20119;BME280;10220;42.716;23.306;2023-06-10T08:29:48;94812.41;;;24.59;100.00
20119;BME280;10220;42.716;23.306;2023-06-10T08:32:13;94807.88;;;25.30;98.45
20119;BME280;10220;42.716;23.306;2023-06-10T08:34:39;94800.25;;;24.31;99.81
20119;BME280;10220;42.716;23.306;2023-06-10T08:37:05;94804.00;;;24.17;100.00
20119;BME280;10220;42.716;23.306;2023-06-10T08:39:30;94805.25;;;24.46;100.00
20119;BME280;10220;42.716;23.306;2023-06-10T08:42:28;94799.22;;;23.47;100.00
20119;BME280;10220;42.716;23.306;2023-06-10T08:45:01;94791.34;;;23.87;100.00
20119;BME280;10220;42.716;23.306;2023-06-10T08:47:29;94793.78;;;24.23;100.00
20119;BME280;10220;42.716;23.306;2023-06-10T08:49:57;94799.88;;;24.37;100.00
20119;BME280;10220;42.716;23.306;2023-06-10T08:52:34;94784.72;;;24.86;100.00
20119;BME280;10220;42.716;23.306;2023-06-10T08:55:04;94779.78;;;25.37;100.00
20119;BME280;10220;42.716;23.306;2023-06-10T08:57:30;94781.44;;;25.77;90.96
20119;BME280;10220;42.716;23.306;2023-06-10T09:00:02;94769.00;;;25.86;94.51
20119;BME280;10220;42.716;23.306;2023-06-10T09:02:28;94770.63;;;26.04;90.19
20119;BME280;10220;42.716;23.306;2023-06-10T09:04:56;94776.50;;;25.62;86.39
20119;BME280;10220;42.716;23.306;2023-06-10T09:07:22;94777.59;;;25.91;84.60
20119;BME280;10220;42.716;23.306;2023-06-10T09:09:49;94781.31;;;25.82;82.37
20119;BME280;10220;42.716;23.306;2023-06-10T09:12:15;94772.56;;;25.81;81.10
20119;BME280;10220;42.716;23.306;2023-06-10T09:14:42;94772.63;;;25.68;83.77
20119;BME280;10220;42.716;23.306;2023-06-10T09:17:07;94781.34;;;25.60;86.77
20119;BME280;10220;42.716;23.306;2023-06-10T09:19:33;94747.06;;;25.72;86.09
20119;BME280;10220;42.716;23.306;2023-06-10T09:21:59;94754.78;;;25.90;83.39
20119;BME280;10220;42.716;23.306;2023-06-10T09:24:30;94780.44;;;26.42;77.04
20119;BME280;10220;42.716;23.306;2023-06-10T09:27:07;94770.91;;;25.94;80.27
20119;BME280;10220;42.716;23.306;2023-06-10T09:29:46;94764.50;;;26.03;76.37
20119;BME280;10220;42.716;23.306;2023-06-10T09:32:37;94770.13;;;26.40;78.86
20119;BME280;10220;42.716;23.306;2023-06-10T09:35:09;94759.47;;;25.63;89.07
20119;BME280;10220;42.716;23.306;2023-06-10T09:37:38;94758.19;;;25.52;83.48
20119;BME280;10220;42.716;23.306;2023-06-10T09:40:07;94734.09;;;25.40;79.18
20119;BME280;10220;42.716;23.306;2023-06-10T09:42:37;94722.69;;;25.70;76.35
20119;BME280;10220;42.716;23.306;2023-06-10T09:45:04;94748.56;;;25.95;76.74
20119;BME280;10220;42.716;23.306;2023-06-10T09:47:29;94767.09;;;25.86;76.01
20119;BME280;10220;42.716;23.306;2023-06-10T09:49:55;94750.72;;;25.93;75.94
20119;BME280;10220;42.716;23.306;2023-06-10T09:52:28;94744.09;;;26.29;81.44
20119;BME280;10220;42.716;23.306;2023-06-10T09:54:59;94746.00;;;26.28;77.93
20119;BME280;10220;42.716;23.306;2023-06-10T09:57:26;94748.69;;;26.37;73.58
20119;BME280;10220;42.716;23.306;2023-06-10T10:17:43;94692.56;;;26.64;60.69
20119;BME280;10220;42.716;23.306;2023-06-10T10:37:35;94718.06;;;27.52;54.65
20119;BME280;10220;42.716;23.306;2023-06-10T10:40:02;94718.19;;;26.93;56.51
20119;BME280;10220;42.716;23.306;2023-06-10T10:42:29;94686.75;;;26.62;58.20
20119;BME280;10220;42.716;23.306;2023-06-10T10:44:55;94717.25;;;26.89;58.58
20119;BME280;10220;42.716;23.306;2023-06-10T10:47:21;94698.81;;;26.84;60.85
20119;BME280;10220;42.716;23.306;2023-06-10T10:49:51;94695.97;;;26.98;59.70
20119;BME280;10220;42.716;23.306;2023-06-10T10:52:17;94688.28;;;26.12;61.43
20119;BME280;10220;42.716;23.306;2023-06-10T10:54:44;94700.25;;;25.84;62.70
20119;BME280;10220;42.716;23.306;2023-06-10T11:02:44;94691.41;;;26.14;66.76
20119;BME280;10220;42.716;23.306;2023-06-10T11:05:14;94686.16;;;26.56;63.45
20119;BME280;10220;42.716;23.306;2023-06-10T11:07:40;94682.69;;;26.47;64.83
20119;BME280;10220;42.716;23.306;2023-06-10T11:10:17;94675.00;;;26.20;64.52
20119;BME280;10220;42.716;23.306;2023-06-10T11:12:50;94671.00;;;25.76;68.16
20119;BME280;10220;42.716;23.306;2023-06-10T11:15:25;94654.97;;;25.98;64.79
20119;BME280;10220;42.716;23.306;2023-06-10T11:18:23;94677.00;;;26.06;70.32
20119;BME280;10220;42.716;23.306;2023-06-10T11:20:57;94670.88;;;25.89;70.85
20119;BME280;10220;42.716;23.306;2023-06-10T11:28:40;94663.19;;;25.71;73.29
20119;BME280;10220;42.716;23.306;2023-06-10T11:31:05;94647.94;;;25.93;69.36
20119;BME280;10220;42.716;23.306;2023-06-10T11:33:31;94648.28;;;25.61;73.72
20119;BME280;10220;42.716;23.306;2023-06-10T11:35:57;94642.03;;;25.57;70.37
20119;BME280;10220;42.716;23.306;2023-06-10T11:38:24;94660.38;;;25.76;72.77
20119;BME280;10220;42.716;23.306;2023-06-10T11:40:50;94659.03;;;25.95;75.49
20119;BME280;10220;42.716;23.306;2023-06-10T11:43:19;94645.13;;;25.98;67.12
20119;BME280;10220;42.716;23.306;2023-06-10T11:45:45;94649.66;;;25.98;66.13
20119;BME280;10220;42.716;23.306;2023-06-10T11:48:12;94658.56;;;26.10;60.16
20119;BME280;10220;42.716;23.306;2023-06-10T11:50:37;94649.16;;;25.87;66.17
20119;BME280;10220;42.716;23.306;2023-06-10T11:53:03;94644.19;;;26.03;66.39
20119;BME280;10220;42.716;23.306;2023-06-10T11:55:49;94635.50;;;25.63;59.22
20119;BME280;10220;42.716;23.306;2023-06-10T11:58:20;94645.00;;;25.56;55.95
20119;BME280;10220;42.716;23.306;2023-06-10T12:00:47;94635.16;;;25.56;59.00
20119;BME280;10220;42.716;23.306;2023-06-10T12:03:13;94629.97;;;25.51;57.03
20119;BME280;10220;42.716;23.306;2023-06-10T12:05:39;94623.03;;;25.72;50.91
20119;BME280;10220;42.716;23.306;2023-06-10T12:08:11;94645.78;;;26.04;49.68
20119;BME280;10220;42.716;23.306;2023-06-10T12:10:43;94633.56;;;25.86;51.32
20119;BME280;10220;42.716;23.306;2023-06-10T12:13:09;94628.53;;;25.76;54.42
20119;BME280;10220;42.716;23.306;2023-06-10T12:15:35;94645.00;;;25.64;54.83
20119;BME280;10220;42.716;23.306;2023-06-10T12:18:01;94623.53;;;25.74;52.33
20119;BME280;10220;42.716;23.306;2023-06-10T12:20:29;94617.13;;;25.75;51.93
20119;BME280;10220;42.716;23.306;2023-06-10T12:22:54;94616.63;;;25.65;51.61
20119;BME280;10220;42.716;23.306;2023-06-10T12:25:27;94636.06;;;25.99;51.61
20119;BME280;10220;42.716;23.306;2023-06-10T12:27:55;94624.50;;;25.87;48.95
20119;BME280;10220;42.716;23.306;2023-06-10T12:30:24;94612.31;;;26.03;48.52
20119;BME280;10220;42.716;23.306;2023-06-10T12:32:52;94619.94;;;25.96;48.29
20119;BME280;10220;42.716;23.306;2023-06-10T12:35:19;94629.81;;;25.95;47.73
20119;BME280;10220;42.716;23.306;2023-06-10T12:37:58;94620.13;;;25.99;47.28
20119;BME280;10220;42.716;23.306;2023-06-10T12:40:28;94607.09;;;25.72;48.68
20119;BME280;10220;42.716;23.306;2023-06-10T12:42:55;94605.47;;;25.46;48.60
20119;BME280;10220;42.716;23.306;2023-06-10T12:45:34;94607.59;;;25.74;48.35
20119;BME280;10220;42.716;23.306;2023-06-10T12:48:11;94615.44;;;26.04;49.59
20119;BME280;10220;42.716;23.306;2023-06-10T12:50:42;94610.44;;;26.03;47.38
20119;BME280;10220;42.716;23.306;2023-06-10T12:53:09;94611.38;;;25.99;46.59
20119;BME280;10220;42.716;23.306;2023-06-10T12:55:37;94610.44;;;26.11;48.15
20119;BME280;10220;42.716;23.306;2023-06-10T12:58:03;94614.19;;;25.94;48.75
20119;BME280;10220;42.716;23.306;2023-06-10T13:00:28;94609.50;;;26.16;47.53
20119;BME280;10220;42.716;23.306;2023-06-10T13:02:59;94609.34;;;26.04;48.87
20119;BME280;10220;42.716;23.306;2023-06-10T13:05:27;94609.63;;;25.77;49.34
20119;BME280;10220;42.716;23.306;2023-06-10T13:07:52;94623.13;;;25.50;51.21
20119;BME280;10220;42.716;23.306;2023-06-10T13:10:18;94639.38;;;25.57;54.81
20119;BME280;10220;42.716;23.306;2023-06-10T13:12:44;94637.16;;;24.38;78.59
20119;BME280;10220;42.716;23.306;2023-06-10T13:15:10;94648.31;;;23.65;96.52
20119;BME280;10220;42.716;23.306;2023-06-10T13:17:36;94655.25;;;23.48;100.00
20119;BME280;10220;42.716;23.306;2023-06-10T13:20:06;94663.09;;;23.26;100.00
20119;BME280;10220;42.716;23.306;2023-06-10T13:22:33;94674.97;;;22.83;100.00
20119;BME280;10220;42.716;23.306;2023-06-10T13:25:00;94660.50;;;22.62;100.00
20119;BME280;10220;42.716;23.306;2023-06-10T13:27:26;94656.44;;;22.51;100.00
20119;BME280;10220;42.716;23.306;2023-06-10T13:29:52;94646.72;;;22.15;100.00
20119;BME280;10220;42.716;23.306;2023-06-10T13:32:18;94661.47;;;21.98;100.00
20119;BME280;10220;42.716;23.306;2023-06-10T13:34:43;94657.81;;;22.12;100.00